createdAt,value
2017-08-10T00:01:06.007Z,1011.5
2017-08-10T00:02:18.215Z,1011.57
2017-08-10T00:03:30.819Z,1011.57
2017-08-10T00:04:43.416Z,1011.56
2017-08-10T00:05:55.403Z,1011.56
2017-08-10T00:07:07.932Z,1011.56
2017-08-10T00:08:20.299Z,1011.59
2017-08-10T00:09:32.938Z,1011.57
2017-08-10T00:10:45.483Z,1011.57
2017-08-10T00:11:58.335Z,1011.58
2017-08-10T00:13:10.954Z,1011.56
2017-08-10T00:14:23.262Z,1011.56
2017-08-10T00:15:35.897Z,1011.6
2017-08-10T00:16:48.517Z,1011.63
2017-08-10T00:18:00.792Z,1011.62
2017-08-10T00:19:13.341Z,1011.68
2017-08-10T00:20:25.377Z,1011.66
2017-08-10T00:21:37.953Z,1011.73
2017-08-10T00:22:50.786Z,1011.7
2017-08-10T00:24:03.339Z,1011.8
2017-08-10T00:25:15.997Z,1011.85
2017-08-10T00:26:27.994Z,1011.83
2017-08-10T00:27:40.583Z,1011.94
2017-08-10T00:28:53.177Z,1011.92
2017-08-10T00:30:05.767Z,1011.94
2017-08-10T00:31:18.464Z,1011.95
2017-08-10T00:32:30.757Z,1011.94
2017-08-10T00:33:43.380Z,1011.91
2017-08-10T00:34:55.932Z,1011.88
2017-08-10T00:36:08.540Z,1011.79
2017-08-10T00:37:21.183Z,1011.8
2017-08-10T00:38:33.470Z,1011.75
2017-08-10T00:39:46.011Z,1011.73
2017-08-10T00:40:58.256Z,1011.7
2017-08-10T00:42:10.563Z,1011.73
2017-08-10T00:43:23.176Z,1011.74
2017-08-10T00:44:35.819Z,1011.77
2017-08-10T00:45:48.064Z,1011.73
2017-08-10T00:47:00.336Z,1011.73
2017-08-10T00:48:12.662Z,1011.81
2017-08-10T00:49:25.232Z,1011.76
2017-08-10T00:50:37.480Z,1011.83
2017-08-10T00:51:50.122Z,1011.9
2017-08-10T00:53:02.154Z,1011.95
2017-08-10T00:54:14.790Z,1011.99
2017-08-10T00:55:27.060Z,1012.1
2017-08-10T00:56:39.021Z,1012.16
2017-08-10T00:57:51.273Z,1012.21
2017-08-10T00:59:03.544Z,1012.24
2017-08-10T01:00:16.158Z,1012.32
2017-08-10T01:01:28.419Z,1012.37
2017-08-10T01:02:41.105Z,1012.39
2017-08-10T01:03:53.403Z,1012.41
2017-08-10T01:05:05.386Z,1012.43
2017-08-10T01:06:17.582Z,1012.52
2017-08-10T01:07:30.278Z,1012.52
2017-08-10T01:08:42.639Z,1012.57
2017-08-10T01:09:54.628Z,1012.54
2017-08-10T01:11:06.854Z,1012.65
2017-08-10T01:12:19.102Z,1012.62
2017-08-10T01:13:31.395Z,1012.68
2017-08-10T01:14:43.992Z,1012.76
2017-08-10T01:15:56.288Z,1012.76
2017-08-10T01:17:08.276Z,1012.74
2017-08-10T01:18:20.920Z,1012.87
2017-08-10T01:19:33.202Z,1012.89
2017-08-10T01:20:45.502Z,1012.86
2017-08-10T01:21:58.079Z,1012.96
2017-08-10T01:23:10.381Z,1012.94
2017-08-10T01:24:22.337Z,1012.95
2017-08-10T01:25:34.656Z,1012.98
2017-08-10T01:26:46.944Z,1012.98
2017-08-10T01:27:58.897Z,1013.03
2017-08-10T01:29:10.622Z,1013.1
2017-08-10T01:30:22.569Z,1013.1
2017-08-10T01:31:35.227Z,1013.09
2017-08-10T01:32:47.509Z,1013.13
2017-08-10T01:34:00.076Z,1013.12
2017-08-10T01:35:12.689Z,1013.14
2017-08-10T01:36:24.919Z,1013.17
2017-08-10T01:37:37.518Z,1013.21
2017-08-10T01:38:49.210Z,1013.2
2017-08-10T01:40:01.738Z,1013.25
2017-08-10T01:41:13.752Z,1013.27
2017-08-10T01:42:26.021Z,1013.29
2017-08-10T01:43:38.674Z,1013.29
2017-08-10T01:44:50.641Z,1013.27
2017-08-10T01:46:02.886Z,1013.28
2017-08-10T01:47:15.485Z,1013.21
2017-08-10T01:48:28.053Z,1013.2
2017-08-10T01:49:40.901Z,1013.19
2017-08-10T01:50:53.223Z,1013.18
2017-08-10T01:52:05.531Z,1013.18
2017-08-10T01:53:18.140Z,1013.17
2017-08-10T01:54:30.437Z,1013.18
2017-08-10T01:55:42.732Z,1013.18
2017-08-10T01:56:55.266Z,1013.22
2017-08-10T01:58:07.883Z,1013.23
2017-08-10T01:59:20.195Z,1013.2
2017-08-10T02:00:32.540Z,1013.23
2017-08-10T02:01:44.231Z,1013.24
2017-08-10T02:02:56.853Z,1013.22
2017-08-10T02:04:08.860Z,1013.23
2017-08-10T02:05:21.435Z,1013.24
2017-08-10T02:06:34.007Z,1013.22
2017-08-10T02:07:45.980Z,1013.26
2017-08-10T02:08:58.565Z,1013.19
2017-08-10T02:10:11.220Z,1013.2
2017-08-10T02:11:23.479Z,1013.23
2017-08-10T02:12:35.977Z,1013.23
2017-08-10T02:13:48.291Z,1013.2
2017-08-10T02:15:00.586Z,1013.22
2017-08-10T02:16:13.169Z,1013.19
2017-08-10T02:17:25.709Z,1013.19
2017-08-10T02:18:38.361Z,1013.16
2017-08-10T02:19:50.632Z,1013.19
2017-08-10T02:21:02.957Z,1013.16
2017-08-10T02:22:15.591Z,1013.18
2017-08-10T02:23:28.214Z,1013.11
2017-08-10T02:24:40.834Z,1013.13
2017-08-10T02:25:53.425Z,1013.06
2017-08-10T02:27:05.459Z,1013.02
2017-08-10T02:28:18.074Z,1013.02
2017-08-10T02:29:30.331Z,1012.99
2017-08-10T02:30:42.902Z,1012.98
2017-08-10T02:31:55.473Z,1012.95
2017-08-10T02:33:07.732Z,1012.93
2017-08-10T02:34:19.970Z,1012.94
2017-08-10T02:35:32.235Z,1012.85
2017-08-10T02:36:44.507Z,1012.85
2017-08-10T02:37:56.463Z,1012.8
2017-08-10T02:39:08.705Z,1012.8
2017-08-10T02:40:20.028Z,1012.76
2017-08-10T02:41:32.627Z,1012.74
2017-08-10T02:42:45.229Z,1012.72
2017-08-10T02:43:57.848Z,1012.71
2017-08-10T02:45:09.898Z,1012.7
2017-08-10T02:46:22.188Z,1012.66
2017-08-10T02:47:34.852Z,1012.63
2017-08-10T02:48:47.436Z,1012.57
2017-08-10T02:49:59.796Z,1012.56
2017-08-10T02:51:12.101Z,1012.47
2017-08-10T02:52:24.391Z,1012.5
2017-08-10T02:53:37.006Z,1012.49
2017-08-10T02:54:49.303Z,1012.5
2017-08-10T02:56:01.632Z,1012.44
2017-08-10T02:57:13.545Z,1012.43
2017-08-10T02:58:26.118Z,1012.36
2017-08-10T02:59:38.438Z,1012.36
2017-08-10T03:00:50.407Z,1012.3
2017-08-10T03:02:02.983Z,1012.27
2017-08-10T03:03:15.301Z,1012.19
2017-08-10T03:04:27.594Z,1012.16
2017-08-10T03:05:40.115Z,1012.13
2017-08-10T03:06:52.679Z,1012.09
2017-08-10T03:08:05.307Z,1012.05
2017-08-10T03:09:17.535Z,1012.04
2017-08-10T03:10:29.856Z,1011.96
2017-08-10T03:11:42.457Z,1011.99
2017-08-10T03:12:54.492Z,1011.94
2017-08-10T03:14:06.814Z,1011.94
2017-08-10T03:15:18.790Z,1011.92
2017-08-10T03:16:31.466Z,1011.9
2017-08-10T03:17:43.478Z,1011.89
2017-08-10T03:18:56.122Z,1011.86
2017-08-10T03:20:08.701Z,1011.82
2017-08-10T03:21:20.961Z,1011.79
2017-08-10T03:22:33.550Z,1011.71
2017-08-10T03:23:46.171Z,1011.66
2017-08-10T03:24:58.743Z,1011.63
2017-08-10T03:26:11.306Z,1011.63
2017-08-10T03:27:23.593Z,1011.6
2017-08-10T03:28:35.624Z,1011.59
2017-08-10T03:29:47.324Z,1011.58
2017-08-10T03:30:59.931Z,1011.59
2017-08-10T03:32:12.551Z,1011.56
2017-08-10T03:33:25.120Z,1011.47
2017-08-10T03:34:37.693Z,1011.44
2017-08-10T03:35:49.988Z,1011.44
2017-08-10T03:37:02.584Z,1011.37
2017-08-10T03:38:15.236Z,1011.42
2017-08-10T03:39:27.881Z,1011.41
2017-08-10T03:40:40.491Z,1011.44
2017-08-10T03:41:53.067Z,1011.4
2017-08-10T03:43:05.106Z,1011.43
2017-08-10T03:44:17.345Z,1011.42
2017-08-10T03:45:29.956Z,1011.45
2017-08-10T03:46:42.561Z,1011.44
2017-08-10T03:47:55.154Z,1011.45
2017-08-10T03:49:07.741Z,1011.43
2017-08-10T03:50:20.039Z,1011.38
2017-08-10T03:51:32.351Z,1011.38
2017-08-10T03:52:44.638Z,1011.36
2017-08-10T03:53:57.238Z,1011.4
2017-08-10T03:55:09.823Z,1011.4
2017-08-10T03:56:22.448Z,1011.38
2017-08-10T03:57:35.007Z,1011.4
2017-08-10T03:58:47.285Z,1011.43
2017-08-10T03:59:59.231Z,1011.41
2017-08-10T04:01:11.201Z,1011.45
2017-08-10T04:02:23.476Z,1011.47
2017-08-10T04:03:35.751Z,1011.44
2017-08-10T04:04:48.066Z,1011.43
2017-08-10T04:06:00.625Z,1011.41
2017-08-10T04:07:12.669Z,1011.39
2017-08-10T04:08:24.928Z,1011.37
2017-08-10T04:09:37.216Z,1011.41
2017-08-10T04:10:49.498Z,1011.39
2017-08-10T04:12:02.092Z,1011.44
2017-08-10T04:13:14.047Z,1011.43
2017-08-10T04:14:26.712Z,1011.45
2017-08-10T04:15:39.006Z,1011.46
2017-08-10T04:16:51.624Z,1011.5
2017-08-10T04:18:03.856Z,1011.58
2017-08-10T04:19:16.191Z,1011.59
2017-08-10T04:20:28.466Z,1011.62
2017-08-10T04:21:40.789Z,1011.69
2017-08-10T04:22:53.129Z,1011.68
2017-08-10T04:24:05.674Z,1011.69
2017-08-10T04:25:17.971Z,1011.68
2017-08-10T04:26:30.234Z,1011.66
2017-08-10T04:27:42.739Z,1011.67
2017-08-10T04:28:55.296Z,1011.72
2017-08-10T04:30:07.657Z,1011.71
2017-08-10T04:31:20.186Z,1011.69
2017-08-10T04:32:32.803Z,1011.73
2017-08-10T04:33:45.355Z,1011.73
2017-08-10T04:34:57.942Z,1011.7
2017-08-10T04:36:10.224Z,1011.73
2017-08-10T04:37:22.797Z,1011.78
2017-08-10T04:38:35.425Z,1011.75
2017-08-10T04:39:48.048Z,1011.79
2017-08-10T04:41:00.354Z,1011.81
2017-08-10T04:42:12.988Z,1011.85
2017-08-10T04:43:25.612Z,1011.88
2017-08-10T04:44:37.892Z,1011.84
2017-08-10T04:45:50.516Z,1011.83
2017-08-10T04:47:03.123Z,1011.85
2017-08-10T04:48:15.718Z,1011.86
2017-08-10T04:49:27.943Z,1011.85
2017-08-10T04:50:40.217Z,1011.84
2017-08-10T04:51:52.544Z,1011.85
2017-08-10T04:53:04.183Z,1011.9
2017-08-10T04:54:16.498Z,1011.95
2017-08-10T04:55:28.811Z,1011.95
2017-08-10T04:56:41.113Z,1011.99
2017-08-10T04:57:53.736Z,1012
2017-08-10T04:59:06.035Z,1012.06
2017-08-10T05:00:18.319Z,1012.03
2017-08-10T05:01:30.598Z,1012.08
2017-08-10T05:02:42.857Z,1012.09
2017-08-10T05:03:55.415Z,1012.11
2017-08-10T05:05:07.379Z,1012.12
2017-08-10T05:06:19.889Z,1012.13
2017-08-10T05:07:32.508Z,1012.18
2017-08-10T05:08:44.749Z,1012.17
2017-08-10T05:09:57.056Z,1012.16
2017-08-10T05:11:09.040Z,1012.16
2017-08-10T05:12:21.340Z,1012.15
2017-08-10T05:13:33.962Z,1012.15
2017-08-10T05:14:46.556Z,1012.14
2017-08-10T05:15:59.154Z,1012.16
2017-08-10T05:17:11.428Z,1012.21
2017-08-10T05:18:23.706Z,1012.2
2017-08-10T05:19:36.261Z,1012.25
2017-08-10T05:20:48.870Z,1012.27
2017-08-10T05:22:01.185Z,1012.29
2017-08-10T05:23:13.151Z,1012.31
2017-08-10T05:24:25.672Z,1012.36
2017-08-10T05:25:38.024Z,1012.32
2017-08-10T05:26:50.349Z,1012.32
2017-08-10T05:28:03.008Z,1012.35
2017-08-10T05:29:15.605Z,1012.35
2017-08-10T05:30:28.203Z,1012.35
2017-08-10T05:31:40.472Z,1012.38
2017-08-10T05:32:53.385Z,1012.51
2017-08-10T05:34:05.968Z,1012.47
2017-08-10T05:35:17.952Z,1012.49
2017-08-10T05:36:30.533Z,1012.52
2017-08-10T05:37:43.210Z,1012.47
2017-08-10T05:38:55.535Z,1012.51
2017-08-10T05:40:07.773Z,1012.51
2017-08-10T05:41:19.788Z,1012.49
2017-08-10T05:42:32.365Z,1012.47
2017-08-10T05:43:44.972Z,1012.48
2017-08-10T05:44:57.201Z,1012.4
2017-08-10T05:46:09.490Z,1012.37
2017-08-10T05:47:21.779Z,1012.35
2017-08-10T05:48:34.441Z,1012.32
2017-08-10T05:49:46.814Z,1012.32
2017-08-10T05:50:59.406Z,1012.28
2017-08-10T05:52:11.982Z,1012.31
2017-08-10T05:53:24.525Z,1012.29
2017-08-10T05:54:37.126Z,1012.31
2017-08-10T05:55:49.681Z,1012.3
2017-08-10T05:57:02.276Z,1012.4
2017-08-10T05:58:14.606Z,1012.53
2017-08-10T05:59:27.169Z,1012.55
2017-08-10T06:00:39.480Z,1012.54
2017-08-10T06:01:52.051Z,1012.49
2017-08-10T06:03:04.616Z,1012.55
2017-08-10T06:04:16.588Z,1012.55
2017-08-10T06:05:29.143Z,1012.6
2017-08-10T06:06:41.145Z,1012.59
2017-08-10T06:07:53.760Z,1012.6
2017-08-10T06:09:06.369Z,1012.6
2017-08-10T06:10:18.940Z,1012.67
2017-08-10T06:11:31.541Z,1012.68
2017-08-10T06:12:44.160Z,1012.69
2017-08-10T06:13:56.759Z,1012.71
2017-08-10T06:15:09.380Z,1012.67
2017-08-10T06:16:21.371Z,1012.69
2017-08-10T06:17:33.697Z,1012.72
2017-08-10T06:18:46.304Z,1012.68
2017-08-10T06:19:58.858Z,1012.69
2017-08-10T06:21:11.629Z,1012.64
2017-08-10T06:22:23.629Z,1012.66
2017-08-10T06:23:35.913Z,1012.65
2017-08-10T06:24:48.491Z,1012.69
2017-08-10T06:26:00.463Z,1012.66
2017-08-10T06:27:13.040Z,1012.69
2017-08-10T06:28:25.642Z,1012.72
2017-08-10T06:29:37.650Z,1012.76
2017-08-10T06:30:50.268Z,1012.85
2017-08-10T06:32:02.548Z,1012.85
2017-08-10T06:33:14.489Z,1012.86
2017-08-10T06:34:26.788Z,1012.88
2017-08-10T06:35:39.429Z,1012.87
2017-08-10T06:36:52.037Z,1012.88
2017-08-10T06:38:04.626Z,1012.93
2017-08-10T06:39:17.209Z,1012.92
2017-08-10T06:40:29.503Z,1012.97
2017-08-10T06:41:41.889Z,1013.04
2017-08-10T06:42:54.463Z,1013.08
2017-08-10T06:44:07.051Z,1013.05
2017-08-10T06:45:19.308Z,1013.03
2017-08-10T06:46:31.924Z,1013.04
2017-08-10T06:47:44.490Z,1013.08
2017-08-10T06:48:57.103Z,1013.03
2017-08-10T06:50:09.709Z,1013.02
2017-08-10T06:51:21.676Z,1013
2017-08-10T06:52:34.253Z,1013.06
2017-08-10T06:53:46.869Z,1013.08
2017-08-10T06:54:59.155Z,1013.11
2017-08-10T06:56:11.478Z,1013.19
2017-08-10T06:57:23.767Z,1013.25
2017-08-10T06:58:36.081Z,1013.29
2017-08-10T06:59:48.323Z,1013.34
2017-08-10T07:01:00.595Z,1013.37
2017-08-10T07:02:12.893Z,1013.4
2017-08-10T07:03:25.536Z,1013.43
2017-08-10T07:04:38.058Z,1013.45
2017-08-10T07:05:50.036Z,1013.46
2017-08-10T07:07:02.287Z,1013.45
2017-08-10T07:08:14.870Z,1013.44
2017-08-10T07:09:27.466Z,1013.45
2017-08-10T07:10:40.012Z,1013.52
2017-08-10T07:11:52.015Z,1013.45
2017-08-10T07:13:04.670Z,1013.48
2017-08-10T07:14:17.252Z,1013.5
2017-08-10T07:15:29.577Z,1013.56
2017-08-10T07:16:41.920Z,1013.54
2017-08-10T07:17:54.562Z,1013.53
2017-08-10T07:19:06.258Z,1013.52
2017-08-10T07:20:18.278Z,1013.58
2017-08-10T07:21:30.906Z,1013.58
2017-08-10T07:22:43.247Z,1013.55
2017-08-10T07:23:55.847Z,1013.56
2017-08-10T07:25:08.127Z,1013.6
2017-08-10T07:26:20.732Z,1013.56
2017-08-10T07:27:33.045Z,1013.61
2017-08-10T07:28:45.612Z,1013.54
2017-08-10T07:29:58.299Z,1013.57
2017-08-10T07:31:10.879Z,1013.53
2017-08-10T07:32:23.489Z,1013.53
2017-08-10T07:33:36.022Z,1013.48
2017-08-10T07:34:48.704Z,1013.4
2017-08-10T07:36:00.753Z,1013.4
2017-08-10T07:37:13.053Z,1013.36
2017-08-10T07:38:25.011Z,1013.38
2017-08-10T07:39:36.967Z,1013.45
2017-08-10T07:40:49.496Z,1013.46
2017-08-10T07:42:01.800Z,1013.46
2017-08-10T07:43:14.038Z,1013.52
2017-08-10T07:44:26.347Z,1013.51
2017-08-10T07:45:38.711Z,1013.5
2017-08-10T07:46:51.290Z,1013.5
2017-08-10T07:48:03.552Z,1013.48
2017-08-10T07:49:15.507Z,1013.48
2017-08-10T07:50:28.101Z,1013.49
2017-08-10T07:51:40.689Z,1013.56
2017-08-10T07:52:53.024Z,1013.59
2017-08-10T07:54:05.293Z,1013.61
2017-08-10T07:55:17.889Z,1013.55
2017-08-10T07:56:30.193Z,1013.58
2017-08-10T07:57:42.788Z,1013.59
2017-08-10T07:58:54.827Z,1013.72
2017-08-10T08:00:07.448Z,1013.77
2017-08-10T08:01:19.822Z,1013.86
2017-08-10T08:02:32.112Z,1013.92
2017-08-10T08:03:44.408Z,1013.97
2017-08-10T08:04:56.709Z,1013.97
2017-08-10T08:06:08.977Z,1013.95
2017-08-10T08:07:21.328Z,1013.87
2017-08-10T08:08:33.969Z,1013.75
2017-08-10T08:09:46.248Z,1013.66
2017-08-10T08:10:58.840Z,1013.7
2017-08-10T08:12:11.408Z,1013.65
2017-08-10T08:13:23.977Z,1013.72
2017-08-10T08:14:36.572Z,1013.68
2017-08-10T08:15:48.877Z,1013.69
2017-08-10T08:17:01.168Z,1013.68
2017-08-10T08:18:13.458Z,1013.72
2017-08-10T08:19:26.032Z,1013.68
2017-08-10T08:20:38.226Z,1013.7
2017-08-10T08:21:50.830Z,1013.63
2017-08-10T08:23:03.169Z,1013.74
2017-08-10T08:24:15.464Z,1013.73
2017-08-10T08:25:28.063Z,1013.72
2017-08-10T08:26:40.384Z,1013.79
2017-08-10T08:27:53.013Z,1013.85
2017-08-10T08:29:05.633Z,1013.86
2017-08-10T08:30:18.194Z,1013.9
2017-08-10T08:31:30.464Z,1013.92
2017-08-10T08:32:43.075Z,1013.88
2017-08-10T08:33:55.681Z,1013.89
2017-08-10T08:35:07.680Z,1013.91
2017-08-10T08:36:20.237Z,1013.9
2017-08-10T08:37:32.885Z,1013.87
2017-08-10T08:38:45.174Z,1013.87
2017-08-10T08:39:57.765Z,1013.91
2017-08-10T08:41:10.110Z,1013.95
2017-08-10T08:42:22.725Z,1013.96
2017-08-10T08:43:35.335Z,1013.95
2017-08-10T08:44:47.967Z,1014
2017-08-10T08:46:00.565Z,1013.97
2017-08-10T08:47:13.158Z,1013.99
2017-08-10T08:48:25.766Z,1013.98
2017-08-10T08:49:38.090Z,1013.94
2017-08-10T08:50:50.706Z,1013.98
2017-08-10T08:52:03.351Z,1013.94
2017-08-10T08:53:15.646Z,1014.02
2017-08-10T08:54:27.623Z,1014.06
2017-08-10T08:55:39.974Z,1014.06
2017-08-10T08:56:51.958Z,1014.12
2017-08-10T08:58:04.258Z,1014.1
2017-08-10T08:59:16.555Z,1014.13
2017-08-10T09:00:29.190Z,1014.13
2017-08-10T09:01:41.138Z,1014.12
2017-08-10T09:02:53.688Z,1014.15
2017-08-10T09:04:06.232Z,1014.17
2017-08-10T09:05:18.814Z,1014.24
2017-08-10T09:06:31.447Z,1014.25
2017-08-10T09:07:44.093Z,1014.27
2017-08-10T09:08:56.368Z,1014.34
2017-08-10T09:10:08.609Z,1014.36
2017-08-10T09:11:20.883Z,1014.36
2017-08-10T09:12:33.517Z,1014.31
2017-08-10T09:13:46.074Z,1014.25
2017-08-10T09:14:58.315Z,1014.25
2017-08-10T09:16:10.543Z,1014.24
2017-08-10T09:17:22.833Z,1014.23
2017-08-10T09:18:35.082Z,1014.22
2017-08-10T09:19:47.633Z,1014.23
2017-08-10T09:20:59.620Z,1014.21
2017-08-10T09:22:11.884Z,1014.18
2017-08-10T09:23:24.157Z,1014.2
2017-08-10T09:24:36.438Z,1014.09
2017-08-10T09:25:48.985Z,1014.02
2017-08-10T09:27:01.528Z,1013.93
2017-08-10T09:28:13.813Z,1013.96
2017-08-10T09:29:26.142Z,1013.96
2017-08-10T09:30:38.481Z,1013.96
2017-08-10T09:31:50.790Z,1013.96
2017-08-10T09:33:03.066Z,1014
2017-08-10T09:34:15.679Z,1014
2017-08-10T09:35:27.733Z,1014.04
2017-08-10T09:36:40.031Z,1014.04
2017-08-10T09:37:52.031Z,1013.99
2017-08-10T09:39:04.297Z,1013.92
2017-08-10T09:40:16.886Z,1013.87
2017-08-10T09:41:29.524Z,1013.84
2017-08-10T09:42:41.864Z,1013.79
2017-08-10T09:43:54.142Z,1013.74
2017-08-10T09:45:06.725Z,1013.71
2017-08-10T09:46:18.736Z,1013.72
2017-08-10T09:47:31.049Z,1013.76
2017-08-10T09:48:43.356Z,1013.73
2017-08-10T09:49:55.648Z,1013.76
2017-08-10T09:51:07.322Z,1013.77
2017-08-10T09:52:19.601Z,1013.74
2017-08-10T09:53:31.816Z,1013.73
2017-08-10T09:54:44.082Z,1013.63
2017-08-10T09:55:56.734Z,1013.56
2017-08-10T09:57:09.301Z,1013.56
2017-08-10T09:58:21.886Z,1013.52
2017-08-10T09:59:34.195Z,1013.47
2017-08-10T10:00:46.147Z,1013.43
2017-08-10T10:01:58.724Z,1013.4
2017-08-10T10:03:11.045Z,1013.39
2017-08-10T10:04:23.278Z,1013.34
2017-08-10T10:05:35.305Z,1013.42
2017-08-10T10:06:47.932Z,1013.43
2017-08-10T10:08:00.197Z,1013.39
2017-08-10T10:09:12.540Z,1013.47
2017-08-10T10:10:25.144Z,1013.4
2017-08-10T10:11:37.156Z,1013.35
2017-08-10T10:12:49.763Z,1013.42
2017-08-10T10:14:02.068Z,1013.36
2017-08-10T10:15:14.354Z,1013.37
2017-08-10T10:16:26.984Z,1013.31
2017-08-10T10:17:39.622Z,1013.33
2017-08-10T10:18:51.930Z,1013.3
2017-08-10T10:20:04.582Z,1013.31
2017-08-10T10:21:17.233Z,1013.42
2017-08-10T10:22:29.529Z,1013.46
2017-08-10T10:23:42.082Z,1013.48
2017-08-10T10:24:54.352Z,1013.45
2017-08-10T10:26:06.942Z,1013.41
2017-08-10T10:27:19.211Z,1013.41
2017-08-10T10:28:31.553Z,1013.31
2017-08-10T10:29:43.830Z,1013.33
2017-08-10T10:30:56.395Z,1013.3
2017-08-10T10:32:08.763Z,1013.29
2017-08-10T10:33:21.068Z,1013.32
2017-08-10T10:34:33.375Z,1013.31
2017-08-10T10:35:46.000Z,1013.27
2017-08-10T10:36:57.687Z,1013.27
2017-08-10T10:38:10.020Z,1013.28
2017-08-10T10:39:22.029Z,1013.24
2017-08-10T10:40:34.049Z,1013.21
2017-08-10T10:41:46.403Z,1013.2
2017-08-10T10:42:58.968Z,1013.18
2017-08-10T10:44:11.020Z,1013.25
2017-08-10T10:45:23.635Z,1013.21
2017-08-10T10:46:35.987Z,1013.29
2017-08-10T10:47:48.599Z,1013.2
2017-08-10T10:49:00.553Z,1013.18
2017-08-10T10:50:13.163Z,1013.24
2017-08-10T10:51:25.456Z,1013.17
2017-08-10T10:52:37.828Z,1013.22
2017-08-10T10:53:50.116Z,1013.21
2017-08-10T10:55:02.469Z,1013.19
2017-08-10T10:56:14.440Z,1013.15
2017-08-10T10:57:26.411Z,1013.07
2017-08-10T10:58:38.681Z,1013.02
2017-08-10T10:59:51.009Z,1013.02
2017-08-10T11:01:03.399Z,1012.99
2017-08-10T11:02:16.020Z,1013.05
2017-08-10T11:03:28.514Z,1013.02
2017-08-10T11:04:40.805Z,1013.01
2017-08-10T11:05:53.466Z,1012.98
2017-08-10T11:07:05.512Z,1013
2017-08-10T11:08:17.781Z,1012.87
2017-08-10T11:09:29.480Z,1012.89
2017-08-10T11:10:41.500Z,1012.89
2017-08-10T11:11:53.794Z,1012.91
2017-08-10T11:13:06.120Z,1012.87
2017-08-10T11:14:18.722Z,1012.87
2017-08-10T11:15:30.433Z,1012.96
2017-08-10T11:16:42.153Z,1012.9
2017-08-10T11:17:54.792Z,1012.9
2017-08-10T11:19:07.106Z,1012.85
2017-08-10T11:20:19.121Z,1012.86
2017-08-10T11:21:31.713Z,1012.92
2017-08-10T11:22:44.013Z,1012.92
2017-08-10T11:23:56.034Z,1012.97
2017-08-10T11:25:08.036Z,1012.99
2017-08-10T11:26:20.688Z,1013.02
2017-08-10T11:27:33.322Z,1012.98
2017-08-10T11:28:45.681Z,1013.06
2017-08-10T11:29:58.027Z,1013.03
2017-08-10T11:31:10.591Z,1013.15
2017-08-10T11:32:22.892Z,1013.18
2017-08-10T11:33:35.246Z,1013.1
2017-08-10T11:34:47.867Z,1013.05
2017-08-10T11:36:00.500Z,1013.07
2017-08-10T11:37:11.927Z,1013.03
2017-08-10T11:38:24.205Z,1013.08
2017-08-10T11:39:36.757Z,1013.03
2017-08-10T11:40:49.021Z,1012.99
2017-08-10T11:42:01.685Z,1012.95
2017-08-10T11:43:14.241Z,1012.99
2017-08-10T11:44:26.520Z,1013.01
2017-08-10T11:45:38.780Z,1012.96
2017-08-10T11:46:51.383Z,1012.93
2017-08-10T11:48:03.402Z,1012.86
2017-08-10T11:49:15.712Z,1012.83
2017-08-10T11:50:28.029Z,1012.88
2017-08-10T11:51:40.687Z,1012.85
2017-08-10T11:52:53.339Z,1012.87
2017-08-10T11:54:05.981Z,1012.97
2017-08-10T11:55:18.622Z,1013.03
2017-08-10T11:56:31.186Z,1013.05
2017-08-10T11:57:43.226Z,1012.94
2017-08-10T11:58:55.843Z,1013.01
2017-08-10T12:00:08.207Z,1013.05
2017-08-10T12:01:20.458Z,1013.02
2017-08-10T12:02:33.030Z,1012.99
2017-08-10T12:03:45.655Z,1013.01
2017-08-10T12:04:58.307Z,1012.94
2017-08-10T12:06:09.979Z,1012.93
2017-08-10T12:07:22.256Z,1012.98
2017-08-10T12:08:34.584Z,1012.88
2017-08-10T12:09:47.227Z,1012.91
2017-08-10T12:10:59.858Z,1012.91
2017-08-10T12:12:11.591Z,1012.91
2017-08-10T12:13:24.180Z,1012.86
2017-08-10T12:14:36.500Z,1012.84
2017-08-10T12:15:48.222Z,1012.94
2017-08-10T12:17:00.498Z,1012.98
2017-08-10T12:18:12.846Z,1012.95
2017-08-10T12:19:25.159Z,1012.9
2017-08-10T12:20:37.770Z,1012.98
2017-08-10T12:21:50.420Z,1012.92
2017-08-10T12:23:02.767Z,1012.9
2017-08-10T12:24:15.074Z,1012.88
2017-08-10T12:25:27.172Z,1012.81
2017-08-10T12:26:39.772Z,1012.82
2017-08-10T12:27:52.068Z,1012.8
2017-08-10T12:29:04.634Z,1012.78
2017-08-10T12:30:16.922Z,1012.82
2017-08-10T12:31:29.177Z,1012.91
2017-08-10T12:32:41.146Z,1012.85
2017-08-10T12:33:53.429Z,1012.84
2017-08-10T12:35:05.138Z,1012.9
2017-08-10T12:36:17.438Z,1012.94
2017-08-10T12:37:29.709Z,1012.89
2017-08-10T12:38:42.018Z,1012.88
2017-08-10T12:39:54.333Z,1012.89
2017-08-10T12:41:06.975Z,1012.83
2017-08-10T12:42:19.612Z,1012.86
2017-08-10T12:43:31.866Z,1012.86
2017-08-10T12:44:44.481Z,1012.84
2017-08-10T12:45:57.080Z,1012.79
2017-08-10T12:47:09.423Z,1012.85
2017-08-10T12:48:21.409Z,1012.83
2017-08-10T12:49:33.416Z,1012.82
2017-08-10T12:50:45.978Z,1012.87
2017-08-10T12:51:58.530Z,1012.81
2017-08-10T12:53:10.570Z,1012.8
2017-08-10T12:54:22.926Z,1012.85
2017-08-10T12:55:35.563Z,1012.8
2017-08-10T12:56:47.514Z,1012.77
2017-08-10T12:58:00.146Z,1012.77
2017-08-10T12:59:12.855Z,1012.85
2017-08-10T13:00:25.170Z,1012.81
2017-08-10T13:01:37.755Z,1012.79
2017-08-10T13:02:50.098Z,1012.83
2017-08-10T13:04:02.708Z,1012.83
2017-08-10T13:05:15.248Z,1012.82
2017-08-10T13:06:27.562Z,1012.82
2017-08-10T13:07:40.157Z,1012.75
2017-08-10T13:08:52.153Z,1012.74
2017-08-10T13:10:04.773Z,1012.75
2017-08-10T13:11:16.419Z,1012.61
2017-08-10T13:12:28.394Z,1012.63
2017-08-10T13:13:40.782Z,1012.57
2017-08-10T13:14:53.083Z,1012.54
2017-08-10T13:16:05.392Z,1012.55
2017-08-10T13:17:17.096Z,1012.62
2017-08-10T13:18:29.059Z,1012.63
2017-08-10T13:19:41.044Z,1012.67
2017-08-10T13:20:53.388Z,1012.6
2017-08-10T13:22:05.727Z,1012.59
2017-08-10T13:23:18.054Z,1012.57
2017-08-10T13:24:30.404Z,1012.59
2017-08-10T13:25:42.716Z,1012.53
2017-08-10T13:26:54.687Z,1012.54
2017-08-10T13:28:06.691Z,1012.57
2017-08-10T13:29:19.266Z,1012.61
2017-08-10T13:30:31.236Z,1012.59
2017-08-10T13:31:43.824Z,1012.57
2017-08-10T13:32:56.362Z,1012.55
2017-08-10T13:34:08.321Z,1012.51
2017-08-10T13:35:20.877Z,1012.51
2017-08-10T13:36:32.548Z,1012.5
2017-08-10T13:37:44.888Z,1012.45
2017-08-10T13:38:57.521Z,1012.43
2017-08-10T13:40:09.536Z,1012.48
2017-08-10T13:41:21.832Z,1012.45
2017-08-10T13:42:34.116Z,1012.45
2017-08-10T13:43:46.498Z,1012.4
2017-08-10T13:44:58.757Z,1012.47
2017-08-10T13:46:11.350Z,1012.52
2017-08-10T13:47:23.889Z,1012.54
2017-08-10T13:48:36.132Z,1012.5
2017-08-10T13:49:48.719Z,1012.51
2017-08-10T13:51:01.414Z,1012.45
2017-08-10T13:52:13.403Z,1012.4
2017-08-10T13:53:26.073Z,1012.38
2017-08-10T13:54:38.685Z,1012.48
2017-08-10T13:55:50.719Z,1012.46
2017-08-10T13:57:03.077Z,1012.5
2017-08-10T13:58:15.684Z,1012.46
2017-08-10T13:59:28.290Z,1012.5
2017-08-10T14:00:40.542Z,1012.51
2017-08-10T14:01:53.181Z,1012.48
2017-08-10T14:03:05.520Z,1012.51
2017-08-10T14:04:17.540Z,1012.48
2017-08-10T14:05:29.557Z,1012.43
2017-08-10T14:06:42.142Z,1012.51
2017-08-10T14:07:54.782Z,1012.49
2017-08-10T14:09:07.399Z,1012.42
2017-08-10T14:10:19.718Z,1012.4
2017-08-10T14:11:31.429Z,1012.39
2017-08-10T14:12:43.767Z,1012.46
2017-08-10T14:13:56.435Z,1012.36
2017-08-10T14:15:08.682Z,1012.34
2017-08-10T14:16:21.339Z,1012.24
2017-08-10T14:17:33.928Z,1012.27
2017-08-10T14:18:46.313Z,1012.28
2017-08-10T14:19:58.924Z,1012.31
2017-08-10T14:21:11.262Z,1012.36
2017-08-10T14:22:23.506Z,1012.47
2017-08-10T14:23:35.175Z,1012.42
2017-08-10T14:24:47.858Z,1012.45
2017-08-10T14:26:00.191Z,1012.43
2017-08-10T14:27:12.519Z,1012.45
2017-08-10T14:28:24.809Z,1012.4
2017-08-10T14:29:37.355Z,1012.4
2017-08-10T14:30:49.300Z,1012.48
2017-08-10T14:32:01.936Z,1012.53
2017-08-10T14:33:14.525Z,1012.57
2017-08-10T14:34:27.121Z,1012.61
2017-08-10T14:35:39.411Z,1012.57
2017-08-10T14:36:52.013Z,1012.55
2017-08-10T14:38:04.358Z,1012.53
2017-08-10T14:39:16.371Z,1012.56